sensor_id;sensor_type;location;lat;lon;timestamp;P1;durP1;ratioP1;P2;durP2;ratioP2
45338;SDS011;31071;51.478;5.710;2023-08-31T00:02:16;4.85;;;3.53;;
45338;SDS011;31071;51.478;5.710;2023-08-31T00:04:42;5.03;;;3.50;;
45338;SDS011;31071;51.478;5.710;2023-08-31T00:07:08;7.80;;;3.80;;
45338;SDS011;31071;51.478;5.710;2023-08-31T00:09:33;8.02;;;4.50;;
45338;SDS011;31071;51.478;5.710;2023-08-31T00:12:00;4.45;;;3.30;;
45338;SDS011;31071;51.478;5.710;2023-08-31T00:14:27;6.65;;;4.15;;
45338;SDS011;31071;51.478;5.710;2023-08-31T00:16:52;5.60;;;4.13;;
45338;SDS011;31071;51.478;5.710;2023-08-31T00:19:18;7.32;;;4.40;;
45338;SDS011;31071;51.478;5.710;2023-08-31T00:21:44;6.38;;;4.97;;
45338;SDS011;31071;51.478;5.710;2023-08-31T00:24:10;8.77;;;4.60;;
45338;SDS011;31071;51.478;5.710;2023-08-31T00:26:42;10.68;;;5.00;;
45338;SDS011;31071;51.478;5.710;2023-08-31T00:29:11;9.93;;;5.10;;
45338;SDS011;31071;51.478;5.710;2023-08-31T00:31:36;8.63;;;5.35;;
45338;SDS011;31071;51.478;5.710;2023-08-31T00:34:02;7.32;;;5.22;;
45338;SDS011;31071;51.478;5.710;2023-08-31T00:36:32;7.70;;;5.55;;
45338;SDS011;31071;51.478;5.710;2023-08-31T00:38:58;8.77;;;5.63;;
45338;SDS011;31071;51.478;5.710;2023-08-31T00:41:31;7.65;;;5.78;;
45338;SDS011;31071;51.478;5.710;2023-08-31T00:44:10;7.80;;;5.93;;
45338;SDS011;31071;51.478;5.710;2023-08-31T00:46:37;11.70;;;6.57;;
45338;SDS011;31071;51.478;5.710;2023-08-31T00:49:03;8.40;;;5.93;;
45338;SDS011;31071;51.478;5.710;2023-08-31T00:51:31;11.40;;;6.57;;
45338;SDS011;31071;51.478;5.710;2023-08-31T00:53:57;8.15;;;6.60;;
45338;SDS011;31071;51.478;5.710;2023-08-31T00:56:27;8.30;;;6.28;;
45338;SDS011;31071;51.478;5.710;2023-08-31T00:58:52;9.07;;;6.22;;
45338;SDS011;31071;51.478;5.710;2023-08-31T01:01:25;8.80;;;6.63;;
45338;SDS011;31071;51.478;5.710;2023-08-31T01:04:21;8.63;;;6.53;;
45338;SDS011;31071;51.478;5.710;2023-08-31T01:06:59;7.90;;;5.88;;
45338;SDS011;31071;51.478;5.710;2023-08-31T01:09:56;8.15;;;6.25;;
45338;SDS011;31071;51.478;5.710;2023-08-31T01:12:54;11.35;;;6.45;;
45338;SDS011;31071;51.478;5.710;2023-08-31T01:15:45;9.65;;;6.75;;
45338;SDS011;31071;51.478;5.710;2023-08-31T01:18:15;11.05;;;6.10;;
45338;SDS011;31071;51.478;5.710;2023-08-31T01:20:50;9.57;;;6.75;;
45338;SDS011;31071;51.478;5.710;2023-08-31T01:23:52;10.32;;;7.05;;
45338;SDS011;31071;51.478;5.710;2023-08-31T01:26:23;9.05;;;6.90;;
45338;SDS011;31071;51.478;5.710;2023-08-31T01:28:50;10.77;;;7.70;;
45338;SDS011;31071;51.478;5.710;2023-08-31T01:31:17;8.32;;;6.80;;
45338;SDS011;31071;51.478;5.710;2023-08-31T01:40:52;12.30;;;7.72;;
45338;SDS011;31071;51.478;5.710;2023-08-31T01:43:25;11.15;;;7.53;;
45338;SDS011;31071;51.478;5.710;2023-08-31T01:46:02;10.27;;;8.32;;
45338;SDS011;31071;51.478;5.710;2023-08-31T01:48:28;10.18;;;7.63;;
45338;SDS011;31071;51.478;5.710;2023-08-31T01:50:54;10.88;;;8.10;;
45338;SDS011;31071;51.478;5.710;2023-08-31T01:53:20;11.90;;;8.23;;
45338;SDS011;31071;51.478;5.710;2023-08-31T01:55:51;10.63;;;8.43;;
45338;SDS011;31071;51.478;5.710;2023-08-31T01:58:17;11.57;;;8.48;;
45338;SDS011;31071;51.478;5.710;2023-08-31T02:00:42;8.77;;;7.88;;
45338;SDS011;31071;51.478;5.710;2023-08-31T02:03:09;11.25;;;8.68;;
45338;SDS011;31071;51.478;5.710;2023-08-31T02:05:36;12.73;;;8.40;;
45338;SDS011;31071;51.478;5.710;2023-08-31T02:08:01;12.35;;;8.63;;
45338;SDS011;31071;51.478;5.710;2023-08-31T02:10:27;12.77;;;9.27;;
45338;SDS011;31071;51.478;5.710;2023-08-31T02:12:54;15.20;;;9.52;;
45338;SDS011;31071;51.478;5.710;2023-08-31T02:15:23;11.23;;;9.32;;
45338;SDS011;31071;51.478;5.710;2023-08-31T02:17:55;14.25;;;9.68;;
45338;SDS011;31071;51.478;5.710;2023-08-31T02:20:24;13.80;;;9.60;;
45338;SDS011;31071;51.478;5.710;2023-08-31T02:22:55;16.13;;;9.40;;
45338;SDS011;31071;51.478;5.710;2023-08-31T02:25:21;14.60;;;9.95;;
45338;SDS011;31071;51.478;5.710;2023-08-31T02:27:47;13.25;;;9.63;;
45338;SDS011;31071;51.478;5.710;2023-08-31T02:30:12;12.15;;;9.27;;
45338;SDS011;31071;51.478;5.710;2023-08-31T02:32:38;10.70;;;9.55;;
45338;SDS011;31071;51.478;5.710;2023-08-31T02:35:03;13.02;;;9.63;;
45338;SDS011;31071;51.478;5.710;2023-08-31T02:37:29;17.05;;;10.05;;
45338;SDS011;31071;51.478;5.710;2023-08-31T02:39:55;15.88;;;10.40;;
45338;SDS011;31071;51.478;5.710;2023-08-31T02:42:24;13.35;;;9.82;;
45338;SDS011;31071;51.478;5.710;2023-08-31T02:44:55;15.82;;;10.10;;
45338;SDS011;31071;51.478;5.710;2023-08-31T02:47:21;13.25;;;9.85;;
45338;SDS011;31071;51.478;5.710;2023-08-31T02:49:46;13.85;;;9.98;;
45338;SDS011;31071;51.478;5.710;2023-08-31T02:52:13;13.40;;;10.13;;
45338;SDS011;31071;51.478;5.710;2023-08-31T02:54:38;12.35;;;9.80;;
45338;SDS011;31071;51.478;5.710;2023-08-31T02:57:04;12.27;;;9.52;;
45338;SDS011;31071;51.478;5.710;2023-08-31T02:59:30;17.92;;;10.75;;
45338;SDS011;31071;51.478;5.710;2023-08-31T03:01:55;17.88;;;10.68;;
45338;SDS011;31071;51.478;5.710;2023-08-31T03:04:21;16.75;;;10.70;;
45338;SDS011;31071;51.478;5.710;2023-08-31T03:06:47;15.90;;;11.00;;
45338;SDS011;31071;51.478;5.710;2023-08-31T03:09:12;16.23;;;11.23;;
45338;SDS011;31071;51.478;5.710;2023-08-31T03:11:38;18.25;;;11.82;;
45338;SDS011;31071;51.478;5.710;2023-08-31T03:14:04;17.90;;;11.15;;
45338;SDS011;31071;51.478;5.710;2023-08-31T03:16:29;15.82;;;11.02;;
45338;SDS011;31071;51.478;5.710;2023-08-31T03:18:55;18.23;;;10.88;;
45338;SDS011;31071;51.478;5.710;2023-08-31T03:21:21;13.60;;;10.98;;
45338;SDS011;31071;51.478;5.710;2023-08-31T03:23:46;17.42;;;11.93;;
45338;SDS011;31071;51.478;5.710;2023-08-31T03:26:20;14.10;;;11.30;;
45338;SDS011;31071;51.478;5.710;2023-08-31T03:28:49;17.20;;;11.68;;
45338;SDS011;31071;51.478;5.710;2023-08-31T03:31:15;17.02;;;12.20;;
45338;SDS011;31071;51.478;5.710;2023-08-31T03:33:40;14.98;;;11.63;;
45338;SDS011;31071;51.478;5.710;2023-08-31T03:36:06;15.70;;;12.15;;
45338;SDS011;31071;51.478;5.710;2023-08-31T03:38:32;16.27;;;11.98;;
45338;SDS011;31071;51.478;5.710;2023-08-31T03:41:02;17.00;;;12.82;;
45338;SDS011;31071;51.478;5.710;2023-08-31T03:43:28;19.70;;;12.35;;
45338;SDS011;31071;51.478;5.710;2023-08-31T03:45:54;17.80;;;13.25;;
45338;SDS011;31071;51.478;5.710;2023-08-31T03:48:23;15.65;;;13.93;;
45338;SDS011;31071;51.478;5.710;2023-08-31T03:50:53;19.33;;;13.20;;
45338;SDS011;31071;51.478;5.710;2023-08-31T03:53:35;18.02;;;13.77;;
45338;SDS011;31071;51.478;5.710;2023-08-31T03:56:13;21.17;;;13.77;;
45338;SDS011;31071;51.478;5.710;2023-08-31T03:58:45;17.90;;;13.90;;
45338;SDS011;31071;51.478;5.710;2023-08-31T04:01:13;18.98;;;13.68;;
45338;SDS011;31071;51.478;5.710;2023-08-31T04:03:39;22.25;;;13.25;;
45338;SDS011;31071;51.478;5.710;2023-08-31T04:06:07;20.42;;;14.10;;
45338;SDS011;31071;51.478;5.710;2023-08-31T04:08:32;18.88;;;13.75;;
45338;SDS011;31071;51.478;5.710;2023-08-31T04:11:01;19.40;;;14.48;;
45338;SDS011;31071;51.478;5.710;2023-08-31T04:13:32;19.95;;;13.50;;
45338;SDS011;31071;51.478;5.710;2023-08-31T04:15:58;19.35;;;14.20;;
45338;SDS011;31071;51.478;5.710;2023-08-31T04:18:23;18.10;;;13.88;;
45338;SDS011;31071;51.478;5.710;2023-08-31T04:20:50;18.38;;;13.80;;
45338;SDS011;31071;51.478;5.710;2023-08-31T04:23:16;19.67;;;13.57;;
45338;SDS011;31071;51.478;5.710;2023-08-31T04:25:43;18.23;;;13.48;;
45338;SDS011;31071;51.478;5.710;2023-08-31T04:28:08;17.73;;;13.52;;
45338;SDS011;31071;51.478;5.710;2023-08-31T04:30:37;19.17;;;13.70;;
45338;SDS011;31071;51.478;5.710;2023-08-31T04:33:09;19.50;;;12.57;;
45338;SDS011;31071;51.478;5.710;2023-08-31T04:35:35;18.98;;;12.50;;
45338;SDS011;31071;51.478;5.710;2023-08-31T04:38:01;18.40;;;12.80;;
45338;SDS011;31071;51.478;5.710;2023-08-31T04:40:28;18.17;;;12.75;;
45338;SDS011;31071;51.478;5.710;2023-08-31T04:42:54;18.20;;;13.05;;
45338;SDS011;31071;51.478;5.710;2023-08-31T04:45:20;19.70;;;12.77;;
45338;SDS011;31071;51.478;5.710;2023-08-31T04:47:45;22.88;;;12.90;;
45338;SDS011;31071;51.478;5.710;2023-08-31T04:50:11;19.38;;;12.55;;
45338;SDS011;31071;51.478;5.710;2023-08-31T04:52:37;16.65;;;11.65;;
45338;SDS011;31071;51.478;5.710;2023-08-31T04:55:06;17.60;;;11.88;;
45338;SDS011;31071;51.478;5.710;2023-08-31T04:57:38;17.42;;;12.15;;
45338;SDS011;31071;51.478;5.710;2023-08-31T05:00:04;16.67;;;11.90;;
45338;SDS011;31071;51.478;5.710;2023-08-31T05:02:32;20.15;;;12.80;;
45338;SDS011;31071;51.478;5.710;2023-08-31T05:04:57;18.58;;;11.75;;
45338;SDS011;31071;51.478;5.710;2023-08-31T05:07:23;20.02;;;12.40;;
45338;SDS011;31071;51.478;5.710;2023-08-31T05:09:49;22.63;;;12.40;;
45338;SDS011;31071;51.478;5.710;2023-08-31T05:12:15;19.98;;;13.15;;
45338;SDS011;31071;51.478;5.710;2023-08-31T05:14:42;21.60;;;13.32;;
45338;SDS011;31071;51.478;5.710;2023-08-31T05:17:08;18.30;;;12.73;;
45338;SDS011;31071;51.478;5.710;2023-08-31T05:19:34;15.75;;;12.35;;
45338;SDS011;31071;51.478;5.710;2023-08-31T05:22:00;20.20;;;12.73;;
45338;SDS011;31071;51.478;5.710;2023-08-31T05:24:26;22.00;;;12.80;;
45338;SDS011;31071;51.478;5.710;2023-08-31T05:26:51;19.85;;;12.18;;
45338;SDS011;31071;51.478;5.710;2023-08-31T05:29:17;23.90;;;11.85;;
45338;SDS011;31071;51.478;5.710;2023-08-31T05:31:43;17.48;;;11.80;;
45338;SDS011;31071;51.478;5.710;2023-08-31T05:34:15;18.45;;;11.50;;
45338;SDS011;31071;51.478;5.710;2023-08-31T05:36:43;19.35;;;12.27;;
45338;SDS011;31071;51.478;5.710;2023-08-31T05:39:08;18.42;;;11.98;;
45338;SDS011;31071;51.478;5.710;2023-08-31T05:41:34;17.90;;;11.43;;
45338;SDS011;31071;51.478;5.710;2023-08-31T05:44:00;15.93;;;9.73;;
45338;SDS011;31071;51.478;5.710;2023-08-31T05:46:26;17.38;;;10.57;;
45338;SDS011;31071;51.478;5.710;2023-08-31T05:48:52;13.73;;;10.55;;
45338;SDS011;31071;51.478;5.710;2023-08-31T05:51:18;15.35;;;10.40;;
45338;SDS011;31071;51.478;5.710;2023-08-31T05:53:43;15.18;;;9.98;;
45338;SDS011;31071;51.478;5.710;2023-08-31T05:56:09;15.95;;;10.18;;
45338;SDS011;31071;51.478;5.710;2023-08-31T05:58:35;15.38;;;9.95;;
45338;SDS011;31071;51.478;5.710;2023-08-31T06:01:04;12.98;;;9.60;;
45338;SDS011;31071;51.478;5.710;2023-08-31T06:03:33;15.98;;;10.15;;
45338;SDS011;31071;51.478;5.710;2023-08-31T06:05:59;18.70;;;10.25;;
45338;SDS011;31071;51.478;5.710;2023-08-31T06:08:25;16.85;;;9.85;;
45338;SDS011;31071;51.478;5.710;2023-08-31T06:10:50;17.85;;;10.70;;
45338;SDS011;31071;51.478;5.710;2023-08-31T06:13:16;17.35;;;10.20;;
45338;SDS011;31071;51.478;5.710;2023-08-31T06:15:42;17.88;;;9.60;;
45338;SDS011;31071;51.478;5.710;2023-08-31T06:18:09;19.25;;;10.18;;
45338;SDS011;31071;51.478;5.710;2023-08-31T06:20:35;17.38;;;10.02;;
45338;SDS011;31071;51.478;5.710;2023-08-31T06:23:01;15.43;;;10.57;;
45338;SDS011;31071;51.478;5.710;2023-08-31T06:25:27;15.88;;;9.60;;
45338;SDS011;31071;51.478;5.710;2023-08-31T06:27:53;18.17;;;10.45;;
45338;SDS011;31071;51.478;5.710;2023-08-31T06:30:19;12.48;;;9.25;;
45338;SDS011;31071;51.478;5.710;2023-08-31T06:32:44;13.10;;;9.38;;
45338;SDS011;31071;51.478;5.710;2023-08-31T06:35:11;17.95;;;10.15;;
45338;SDS011;31071;51.478;5.710;2023-08-31T06:37:38;15.25;;;9.02;;
45338;SDS011;31071;51.478;5.710;2023-08-31T06:40:09;14.88;;;9.90;;
45338;SDS011;31071;51.478;5.710;2023-08-31T06:42:35;13.73;;;8.88;;
45338;SDS011;31071;51.478;5.710;2023-08-31T06:45:05;12.70;;;9.02;;
45338;SDS011;31071;51.478;5.710;2023-08-31T06:47:32;12.82;;;8.50;;
45338;SDS011;31071;51.478;5.710;2023-08-31T06:50:07;12.05;;;8.35;;
45338;SDS011;31071;51.478;5.710;2023-08-31T06:52:33;11.05;;;8.27;;
45338;SDS011;31071;51.478;5.710;2023-08-31T06:54:59;14.77;;;8.80;;
45338;SDS011;31071;51.478;5.710;2023-08-31T06:57:25;13.95;;;8.75;;
45338;SDS011;31071;51.478;5.710;2023-08-31T06:59:52;13.18;;;8.48;;
45338;SDS011;31071;51.478;5.710;2023-08-31T07:02:18;17.15;;;7.95;;
45338;SDS011;31071;51.478;5.710;2023-08-31T07:04:44;12.85;;;8.23;;
45338;SDS011;31071;51.478;5.710;2023-08-31T07:07:10;12.82;;;8.55;;
45338;SDS011;31071;51.478;5.710;2023-08-31T07:09:39;11.32;;;7.60;;
45338;SDS011;31071;51.478;5.710;2023-08-31T07:12:08;11.68;;;7.65;;
45338;SDS011;31071;51.478;5.710;2023-08-31T07:14:34;12.68;;;8.05;;
45338;SDS011;31071;51.478;5.710;2023-08-31T07:16:59;15.57;;;8.05;;
45338;SDS011;31071;51.478;5.710;2023-08-31T07:19:28;10.25;;;6.80;;
45338;SDS011;31071;51.478;5.710;2023-08-31T07:21:54;12.13;;;7.38;;
45338;SDS011;31071;51.478;5.710;2023-08-31T07:24:20;11.55;;;7.50;;
45338;SDS011;31071;51.478;5.710;2023-08-31T07:26:46;16.27;;;7.18;;
45338;SDS011;31071;51.478;5.710;2023-08-31T07:29:12;12.85;;;7.32;;
45338;SDS011;31071;51.478;5.710;2023-08-31T07:31:41;13.95;;;7.18;;
45338;SDS011;31071;51.478;5.710;2023-08-31T07:34:06;11.35;;;6.75;;
45338;SDS011;31071;51.478;5.710;2023-08-31T07:36:33;12.50;;;6.88;;
45338;SDS011;31071;51.478;5.710;2023-08-31T07:38:58;13.50;;;6.32;;
45338;SDS011;31071;51.478;5.710;2023-08-31T07:41:24;12.50;;;6.75;;
45338;SDS011;31071;51.478;5.710;2023-08-31T07:43:50;12.77;;;6.72;;
45338;SDS011;31071;51.478;5.710;2023-08-31T07:46:15;13.38;;;6.75;;
45338;SDS011;31071;51.478;5.710;2023-08-31T07:49:03;10.30;;;6.65;;
45338;SDS011;31071;51.478;5.710;2023-08-31T07:51:31;8.75;;;5.95;;
45338;SDS011;31071;51.478;5.710;2023-08-31T07:53:57;9.50;;;5.80;;
45338;SDS011;31071;51.478;5.710;2023-08-31T07:56:31;8.23;;;5.45;;
45338;SDS011;31071;51.478;5.710;2023-08-31T07:58:56;11.23;;;6.07;;
45338;SDS011;31071;51.478;5.710;2023-08-31T08:01:22;10.48;;;5.43;;
45338;SDS011;31071;51.478;5.710;2023-08-31T08:03:48;7.93;;;5.20;;
45338;SDS011;31071;51.478;5.710;2023-08-31T08:06:14;8.45;;;5.07;;
45338;SDS011;31071;51.478;5.710;2023-08-31T08:08:39;12.65;;;4.72;;
45338;SDS011;31071;51.478;5.710;2023-08-31T08:11:06;8.40;;;4.70;;
45338;SDS011;31071;51.478;5.710;2023-08-31T08:13:31;9.80;;;4.65;;
45338;SDS011;31071;51.478;5.710;2023-08-31T08:15:57;10.90;;;4.90;;
45338;SDS011;31071;51.478;5.710;2023-08-31T08:18:22;7.82;;;4.53;;
45338;SDS011;31071;51.478;5.710;2023-08-31T08:20:48;9.13;;;5.35;;
45338;SDS011;31071;51.478;5.710;2023-08-31T08:23:15;7.80;;;4.47;;
45338;SDS011;31071;51.478;5.710;2023-08-31T08:25:41;7.68;;;5.18;;
45338;SDS011;31071;51.478;5.710;2023-08-31T08:28:06;8.48;;;5.03;;
45338;SDS011;31071;51.478;5.710;2023-08-31T08:30:32;11.07;;;4.75;;
45338;SDS011;31071;51.478;5.710;2023-08-31T08:32:58;9.10;;;4.60;;
45338;SDS011;31071;51.478;5.710;2023-08-31T08:35:23;6.85;;;4.22;;
45338;SDS011;31071;51.478;5.710;2023-08-31T08:37:49;10.48;;;5.00;;
45338;SDS011;31071;51.478;5.710;2023-08-31T08:40:15;15.13;;;5.90;;
45338;SDS011;31071;51.478;5.710;2023-08-31T08:42:41;10.02;;;4.88;;
45338;SDS011;31071;51.478;5.710;2023-08-31T08:45:14;9.77;;;5.55;;
45338;SDS011;31071;51.478;5.710;2023-08-31T08:47:41;11.38;;;5.05;;
45338;SDS011;31071;51.478;5.710;2023-08-31T08:50:09;10.55;;;4.72;;
45338;SDS011;31071;51.478;5.710;2023-08-31T08:52:38;11.15;;;5.07;;
45338;SDS011;31071;51.478;5.710;2023-08-31T08:55:05;9.98;;;4.72;;
45338;SDS011;31071;51.478;5.710;2023-08-31T08:57:31;8.23;;;4.43;;
45338;SDS011;31071;51.478;5.710;2023-08-31T08:59:57;7.95;;;4.32;;
45338;SDS011;31071;51.478;5.710;2023-08-31T09:02:23;10.88;;;5.03;;
45338;SDS011;31071;51.478;5.710;2023-08-31T09:04:49;13.73;;;5.90;;
45338;SDS011;31071;51.478;5.710;2023-08-31T09:07:19;12.18;;;5.60;;
45338;SDS011;31071;51.478;5.710;2023-08-31T09:09:49;10.95;;;5.68;;
45338;SDS011;31071;51.478;5.710;2023-08-31T09:12:17;11.50;;;5.55;;
45338;SDS011;31071;51.478;5.710;2023-08-31T09:14:42;13.60;;;5.55;;
45338;SDS011;31071;51.478;5.710;2023-08-31T09:17:08;11.25;;;5.63;;
45338;SDS011;31071;51.478;5.710;2023-08-31T09:19:33;10.48;;;5.15;;
45338;SDS011;31071;51.478;5.710;2023-08-31T09:22:00;10.55;;;4.65;;
45338;SDS011;31071;51.478;5.710;2023-08-31T09:24:25;9.30;;;5.00;;
45338;SDS011;31071;51.478;5.710;2023-08-31T09:26:57;7.32;;;4.55;;
45338;SDS011;31071;51.478;5.710;2023-08-31T09:29:24;7.22;;;4.05;;
45338;SDS011;31071;51.478;5.710;2023-08-31T09:31:49;7.45;;;3.83;;
45338;SDS011;31071;51.478;5.710;2023-08-31T09:34:16;6.75;;;4.22;;
45338;SDS011;31071;51.478;5.710;2023-08-31T09:36:43;8.13;;;4.10;;
45338;SDS011;31071;51.478;5.710;2023-08-31T09:39:09;6.55;;;3.70;;
45338;SDS011;31071;51.478;5.710;2023-08-31T09:41:52;9.38;;;3.50;;
45338;SDS011;31071;51.478;5.710;2023-08-31T09:44:19;10.95;;;3.90;;
45338;SDS011;31071;51.478;5.710;2023-08-31T09:46:45;5.25;;;3.35;;
45338;SDS011;31071;51.478;5.710;2023-08-31T09:49:15;7.15;;;3.55;;
45338;SDS011;31071;51.478;5.710;2023-08-31T09:51:43;6.90;;;3.47;;
45338;SDS011;31071;51.478;5.710;2023-08-31T09:54:14;7.07;;;3.60;;
45338;SDS011;31071;51.478;5.710;2023-08-31T09:56:42;7.30;;;3.35;;
45338;SDS011;31071;51.478;5.710;2023-08-31T09:59:09;5.95;;;3.17;;
45338;SDS011;31071;51.478;5.710;2023-08-31T10:01:36;6.65;;;3.15;;
45338;SDS011;31071;51.478;5.710;2023-08-31T10:04:02;7.82;;;3.78;;
45338;SDS011;31071;51.478;5.710;2023-08-31T10:06:31;7.55;;;3.33;;
45338;SDS011;31071;51.478;5.710;2023-08-31T10:08:57;5.70;;;3.45;;
45338;SDS011;31071;51.478;5.710;2023-08-31T10:11:24;7.38;;;3.20;;
45338;SDS011;31071;51.478;5.710;2023-08-31T10:13:50;7.72;;;3.78;;
45338;SDS011;31071;51.478;5.710;2023-08-31T10:16:18;6.28;;;3.58;;
45338;SDS011;31071;51.478;5.710;2023-08-31T10:18:45;5.63;;;3.45;;
45338;SDS011;31071;51.478;5.710;2023-08-31T10:21:10;7.38;;;5.10;;
45338;SDS011;31071;51.478;5.710;2023-08-31T10:23:43;7.80;;;4.80;;
45338;SDS011;31071;51.478;5.710;2023-08-31T10:26:10;9.20;;;4.10;;
45338;SDS011;31071;51.478;5.710;2023-08-31T10:28:39;7.22;;;3.67;;
45338;SDS011;31071;51.478;5.710;2023-08-31T10:36:15;6.93;;;3.25;;
45338;SDS011;31071;51.478;5.710;2023-08-31T10:38:44;5.18;;;2.42;;
45338;SDS011;31071;51.478;5.710;2023-08-31T10:41:34;6.25;;;2.50;;
45338;SDS011;31071;51.478;5.710;2023-08-31T10:44:00;3.58;;;2.22;;
45338;SDS011;31071;51.478;5.710;2023-08-31T10:51:36;4.03;;;2.35;;
45338;SDS011;31071;51.478;5.710;2023-08-31T10:54:09;4.65;;;2.50;;
45338;SDS011;31071;51.478;5.710;2023-08-31T10:59:52;7.15;;;2.35;;
45338;SDS011;31071;51.478;5.710;2023-08-31T11:05:00;5.50;;;2.28;;
45338;SDS011;31071;51.478;5.710;2023-08-31T11:07:28;7.53;;;2.35;;
45338;SDS011;31071;51.478;5.710;2023-08-31T11:10:06;5.88;;;2.50;;
45338;SDS011;31071;51.478;5.710;2023-08-31T11:12:34;5.22;;;2.40;;
45338;SDS011;31071;51.478;5.710;2023-08-31T11:14:59;8.95;;;2.50;;
45338;SDS011;31071;51.478;5.710;2023-08-31T11:17:25;4.93;;;2.08;;
45338;SDS011;31071;51.478;5.710;2023-08-31T11:19:50;4.85;;;2.15;;
45338;SDS011;31071;51.478;5.710;2023-08-31T11:22:16;4.40;;;2.08;;
45338;SDS011;31071;51.478;5.710;2023-08-31T11:24:42;7.18;;;2.15;;
45338;SDS011;31071;51.478;5.710;2023-08-31T11:27:08;7.55;;;2.17;;
45338;SDS011;31071;51.478;5.710;2023-08-31T11:29:42;3.55;;;1.92;;
45338;SDS011;31071;51.478;5.710;2023-08-31T11:32:09;5.28;;;1.73;;
45338;SDS011;31071;51.478;5.710;2023-08-31T11:34:34;6.13;;;1.80;;
45338;SDS011;31071;51.478;5.710;2023-08-31T11:37:01;7.68;;;2.45;;
45338;SDS011;31071;51.478;5.710;2023-08-31T11:39:28;2.78;;;1.55;;
45338;SDS011;31071;51.478;5.710;2023-08-31T11:41:53;4.38;;;2.30;;
45338;SDS011;31071;51.478;5.710;2023-08-31T11:44:19;6.15;;;2.30;;
45338;SDS011;31071;51.478;5.710;2023-08-31T11:46:45;5.82;;;2.20;;
45338;SDS011;31071;51.478;5.710;2023-08-31T11:49:15;5.70;;;2.38;;
45338;SDS011;31071;51.478;5.710;2023-08-31T11:51:44;4.82;;;2.70;;
45338;SDS011;31071;51.478;5.710;2023-08-31T11:54:10;5.40;;;2.38;;
45338;SDS011;31071;51.478;5.710;2023-08-31T11:56:40;4.80;;;2.53;;
45338;SDS011;31071;51.478;5.710;2023-08-31T11:59:14;8.27;;;2.25;;
45338;SDS011;31071;51.478;5.710;2023-08-31T12:01:42;6.97;;;2.22;;
45338;SDS011;31071;51.478;5.710;2023-08-31T12:04:11;3.33;;;1.90;;
45338;SDS011;31071;51.478;5.710;2023-08-31T12:06:37;7.50;;;2.63;;
45338;SDS011;31071;51.478;5.710;2023-08-31T12:09:04;7.20;;;2.47;;
45338;SDS011;31071;51.478;5.710;2023-08-31T12:11:33;5.82;;;2.53;;
45338;SDS011;31071;51.478;5.710;2023-08-31T12:14:00;3.70;;;2.13;;
45338;SDS011;31071;51.478;5.710;2023-08-31T12:16:31;7.15;;;2.33;;
45338;SDS011;31071;51.478;5.710;2023-08-31T12:19:04;9.15;;;2.70;;
45338;SDS011;31071;51.478;5.710;2023-08-31T12:21:31;4.05;;;2.30;;
45338;SDS011;31071;51.478;5.710;2023-08-31T12:23:57;4.75;;;2.15;;
45338;SDS011;31071;51.478;5.710;2023-08-31T12:26:23;4.82;;;2.20;;
45338;SDS011;31071;51.478;5.710;2023-08-31T12:28:49;5.10;;;2.20;;
45338;SDS011;31071;51.478;5.710;2023-08-31T12:31:15;5.63;;;2.35;;
45338;SDS011;31071;51.478;5.710;2023-08-31T12:33:40;6.30;;;2.28;;
45338;SDS011;31071;51.478;5.710;2023-08-31T12:36:06;6.03;;;3.10;;
45338;SDS011;31071;51.478;5.710;2023-08-31T12:38:32;6.70;;;2.17;;
45338;SDS011;31071;51.478;5.710;2023-08-31T12:40:58;5.25;;;2.03;;
45338;SDS011;31071;51.478;5.710;2023-08-31T12:43:24;5.50;;;1.98;;
45338;SDS011;31071;51.478;5.710;2023-08-31T12:45:49;4.35;;;2.38;;
45338;SDS011;31071;51.478;5.710;2023-08-31T12:48:15;5.13;;;2.85;;
45338;SDS011;31071;51.478;5.710;2023-08-31T12:50:41;6.47;;;3.58;;
45338;SDS011;31071;51.478;5.710;2023-08-31T12:53:06;7.43;;;3.90;;
45338;SDS011;31071;51.478;5.710;2023-08-31T12:55:32;6.15;;;4.20;;
45338;SDS011;31071;51.478;5.710;2023-08-31T12:57:57;8.82;;;4.75;;
45338;SDS011;31071;51.478;5.710;2023-08-31T13:00:23;9.52;;;4.88;;
45338;SDS011;31071;51.478;5.710;2023-08-31T13:02:49;7.38;;;5.22;;
45338;SDS011;31071;51.478;5.710;2023-08-31T13:05:16;9.90;;;5.72;;
45338;SDS011;31071;51.478;5.710;2023-08-31T13:07:42;9.98;;;6.35;;
45338;SDS011;31071;51.478;5.710;2023-08-31T13:10:07;11.38;;;7.00;;
45338;SDS011;31071;51.478;5.710;2023-08-31T13:12:34;10.23;;;7.00;;
45338;SDS011;31071;51.478;5.710;2023-08-31T13:15:00;9.75;;;7.60;;
45338;SDS011;31071;51.478;5.710;2023-08-31T13:17:26;12.20;;;7.82;;
45338;SDS011;31071;51.478;5.710;2023-08-31T13:19:56;9.07;;;7.97;;
45338;SDS011;31071;51.478;5.710;2023-08-31T13:22:33;9.82;;;8.52;;
45338;SDS011;31071;51.478;5.710;2023-08-31T13:24:59;9.93;;;8.50;;
45338;SDS011;31071;51.478;5.710;2023-08-31T13:27:25;11.50;;;8.93;;
45338;SDS011;31071;51.478;5.710;2023-08-31T13:29:51;12.40;;;8.15;;
45338;SDS011;31071;51.478;5.710;2023-08-31T13:32:20;12.82;;;8.30;;
45338;SDS011;31071;51.478;5.710;2023-08-31T13:34:45;10.57;;;8.73;;
45338;SDS011;31071;51.478;5.710;2023-08-31T13:37:11;15.05;;;8.10;;
45338;SDS011;31071;51.478;5.710;2023-08-31T13:39:37;11.30;;;8.13;;
45338;SDS011;31071;51.478;5.710;2023-08-31T13:42:02;9.65;;;8.20;;
45338;SDS011;31071;51.478;5.710;2023-08-31T13:44:29;13.23;;;9.07;;
45338;SDS011;31071;51.478;5.710;2023-08-31T13:46:56;10.55;;;8.95;;
45338;SDS011;31071;51.478;5.710;2023-08-31T13:49:21;11.77;;;9.45;;
45338;SDS011;31071;51.478;5.710;2023-08-31T13:51:47;13.20;;;9.27;;
45338;SDS011;31071;51.478;5.710;2023-08-31T13:54:13;14.00;;;10.73;;
45338;SDS011;31071;51.478;5.710;2023-08-31T13:56:39;14.40;;;10.70;;
45338;SDS011;31071;51.478;5.710;2023-08-31T13:59:04;17.75;;;11.10;;
45338;SDS011;31071;51.478;5.710;2023-08-31T14:01:30;13.65;;;10.85;;
45338;SDS011;31071;51.478;5.710;2023-08-31T14:03:56;18.27;;;11.05;;
45338;SDS011;31071;51.478;5.710;2023-08-31T14:06:21;18.40;;;12.38;;
45338;SDS011;31071;51.478;5.710;2023-08-31T14:08:47;19.77;;;12.43;;
45338;SDS011;31071;51.478;5.710;2023-08-31T14:11:13;18.48;;;12.85;;
45338;SDS011;31071;51.478;5.710;2023-08-31T14:13:39;14.82;;;11.77;;
45338;SDS011;31071;51.478;5.710;2023-08-31T14:16:05;15.40;;;11.00;;
45338;SDS011;31071;51.478;5.710;2023-08-31T14:18:31;13.27;;;10.38;;
45338;SDS011;31071;51.478;5.710;2023-08-31T14:20:57;12.82;;;10.10;;
45338;SDS011;31071;51.478;5.710;2023-08-31T14:23:24;10.82;;;9.38;;
45338;SDS011;31071;51.478;5.710;2023-08-31T14:25:49;12.35;;;8.80;;
45338;SDS011;31071;51.478;5.710;2023-08-31T14:28:15;11.10;;;8.90;;
45338;SDS011;31071;51.478;5.710;2023-08-31T14:30:41;10.60;;;7.75;;
45338;SDS011;31071;51.478;5.710;2023-08-31T14:33:06;8.52;;;7.63;;
45338;SDS011;31071;51.478;5.710;2023-08-31T14:35:32;8.23;;;6.40;;
45338;SDS011;31071;51.478;5.710;2023-08-31T14:38:01;9.75;;;6.50;;
45338;SDS011;31071;51.478;5.710;2023-08-31T14:40:27;7.88;;;5.63;;
45338;SDS011;31071;51.478;5.710;2023-08-31T14:42:52;6.72;;;5.72;;
45338;SDS011;31071;51.478;5.710;2023-08-31T14:45:18;10.32;;;6.28;;
45338;SDS011;31071;51.478;5.710;2023-08-31T14:47:43;8.15;;;6.78;;
45338;SDS011;31071;51.478;5.710;2023-08-31T14:50:09;9.07;;;6.57;;
45338;SDS011;31071;51.478;5.710;2023-08-31T14:52:35;8.20;;;6.80;;
45338;SDS011;31071;51.478;5.710;2023-08-31T14:55:00;10.40;;;6.90;;
45338;SDS011;31071;51.478;5.710;2023-08-31T14:57:28;10.07;;;7.72;;
45338;SDS011;31071;51.478;5.710;2023-08-31T14:59:54;9.93;;;7.53;;
45338;SDS011;31071;51.478;5.710;2023-08-31T15:02:23;10.02;;;7.07;;